Time;durP1;ratioP1;P1;durP2;ratioP2;P2;SDS_P1;SDS_P2;PMS_P1;PMS_P2;Temp;Humidity;BMP_temperature;BMP_pressure;BME280_temperature;BME280_humidity;BME280_pressure;Samples;Min_cycle;Max_cycle;Signal;HPM_P1;HPM_P2
2022/06/24 00:00:42;;;;;;;5.35;2.55;;;;;;;;;;5051308;28;20077;-72
2022/06/24 00:03:15;;;;;;;4.55;2.38;;;;;;;;;;5051297;28;20057;-72
2022/06/24 00:05:41;;;;;;;3.33;2.10;;;;;;;;;;5051332;28;20025;-72
2022/06/24 00:08:07;;;;;;;4.57;2.50;;;;;;;;;;5051447;28;20024;-72
2022/06/24 00:10:34;;;;;;;10.52;3.00;;;;;;;;;;5051462;28;20104;-72
2022/06/24 00:13:01;;;;;;;4.22;2.20;;;;;;;;;;5051174;28;20105;-73
2022/06/24 00:15:28;;;;;;;10.65;2.50;;;;;;;;;;5050868;28;20463;-72
2022/06/24 00:17:54;;;;;;;6.15;2.40;;;;;;;;;;5050987;28;20033;-72
2022/06/24 00:20:20;;;;;;;3.92;2.35;;;;;;;;;;5051014;28;20028;-72
2022/06/24 00:22:50;;;;;;;5.85;2.50;;;;;;;;;;5049749;28;20466;-72
2022/06/24 00:25:20;;;;;;;5.32;2.50;;;;;;;;;;5050957;28;20032;-73
2022/06/24 00:27:58;;;;;;;6.03;2.20;;;;;;;;;;5055197;28;20025;-72
2022/06/24 00:30:24;;;;;;;8.10;2.92;;;;;;;;;;5056224;28;20044;-72
2022/06/24 00:32:50;;;;;;;5.07;2.40;;;;;;;;;;5059038;28;20021;-72
2022/06/24 00:35:17;;;;;;;7.35;2.53;;;;;;;;;;5059322;28;20021;-74
2022/06/24 00:37:44;;;;;;;3.42;2.33;;;;;;;;;;5053389;28;20025;-71
2022/06/24 00:40:10;;;;;;;4.57;2.22;;;;;;;;;;5054556;28;20701;-72
2022/06/24 00:42:37;;;;;;;4.40;2.20;;;;;;;;;;5054366;28;20029;-72
2022/06/24 00:45:15;;;;;;;3.88;2.25;;;;;;;;;;5054447;28;20051;-72
2022/06/24 00:47:42;;;;;;;6.78;2.17;;;;;;;;;;5054341;28;20131;-72
2022/06/24 00:50:34;;;;;;;7.93;2.17;;;;;;;;;;5054458;28;20021;-71
2022/06/24 00:53:01;;;;;;;3.65;2.20;;;;;;;;;;5050444;28;20040;-73
2022/06/24 00:55:28;;;;;;;4.15;2.45;;;;;;;;;;5054070;28;20041;-74
2022/06/24 00:57:55;;;;;;;4.50;2.22;;;;;;;;;;5054310;28;20049;-73
2022/06/24 01:00:23;;;;;;;7.72;2.60;;;;;;;;;;5053925;28;20032;-72
2022/06/24 01:02:49;;;;;;;4.40;2.40;;;;;;;;;;5053732;28;20148;-72
2022/06/24 01:05:18;;;;;;;11.65;2.50;;;;;;;;;;5052206;28;20025;-73
2022/06/24 01:07:44;;;;;;;7.03;2.65;;;;;;;;;;5053969;28;20032;-72
2022/06/24 01:10:10;;;;;;;5.50;2.70;;;;;;;;;;5054095;28;20025;-72
2022/06/24 01:12:37;;;;;;;3.15;2.30;;;;;;;;;;5053952;28;20483;-71
2022/06/24 01:15:04;;;;;;;7.40;3.28;;;;;;;;;;5054268;28;20021;-70
2022/06/24 01:17:30;;;;;;;13.20;2.70;;;;;;;;;;5055518;28;20035;-73
2022/06/24 01:19:56;;;;;;;4.50;2.70;;;;;;;;;;5053299;28;20116;-71
2022/06/24 01:22:25;;;;;;;5.65;2.42;;;;;;;;;;5053567;28;20082;-71
2022/06/24 01:24:52;;;;;;;5.70;2.67;;;;;;;;;;5053567;28;20029;-72
2022/06/24 01:27:18;;;;;;;7.53;2.70;;;;;;;;;;5053311;28;20021;-72
2022/06/24 01:29:44;;;;;;;6.75;2.60;;;;;;;;;;5053319;28;20024;-70
2022/06/24 01:32:10;;;;;;;5.82;3.03;;;;;;;;;;5050718;28;20083;-71
2022/06/24 01:34:37;;;;;;;7.00;3.10;;;;;;;;;;5053348;28;20032;-71
2022/06/24 01:37:03;;;;;;;4.70;2.80;;;;;;;;;;5052490;28;20021;-71
2022/06/24 01:39:29;;;;;;;5.45;2.90;;;;;;;;;;5052475;28;20032;-72
2022/06/24 01:41:55;;;;;;;3.80;2.40;;;;;;;;;;5052957;28;20060;-72
2022/06/24 01:44:22;;;;;;;5.72;3.05;;;;;;;;;;5053253;28;20025;-72
2022/06/24 01:46:48;;;;;;;4.55;2.60;;;;;;;;;;5052355;28;20017;-72
2022/06/24 01:49:14;;;;;;;5.85;3.25;;;;;;;;;;5053063;28;20032;-72
2022/06/24 01:51:41;;;;;;;4.88;2.60;;;;;;;;;;5052809;28;20075;-72
2022/06/24 01:54:07;;;;;;;9.10;3.03;;;;;;;;;;5053015;28;20033;-72
2022/06/24 01:56:33;;;;;;;7.13;2.85;;;;;;;;;;5052358;28;20028;-72
2022/06/24 01:58:59;;;;;;;6.85;3.33;;;;;;;;;;5052903;28;20469;-72
2022/06/24 02:01:25;;;;;;;5.47;2.70;;;;;;;;;;5052327;28;20033;-72
2022/06/24 02:03:51;;;;;;;5.35;2.60;;;;;;;;;;5052765;28;20025;-74
2022/06/24 02:06:17;;;;;;;5.30;2.78;;;;;;;;;;5052000;28;20029;-74
2022/06/24 02:08:43;;;;;;;4.43;2.75;;;;;;;;;;5052878;28;20025;-72
2022/06/24 02:13:54;;;;;;;;;;;;;;;;;;5053237;28;20036;-72
2022/06/24 02:16:21;;;;;;;6.60;2.72;;;;;;;;;;5057208;28;19909;-71
2022/06/24 02:18:47;;;;;;;4.10;2.30;;;;;;;;;;5052795;28;20477;-72
2022/06/24 02:21:13;;;;;;;4.57;2.75;;;;;;;;;;5050556;28;20534;-73
2022/06/24 02:23:39;;;;;;;6.10;3.00;;;;;;;;;;5052558;28;20057;-72
2022/06/24 02:26:05;;;;;;;5.80;2.65;;;;;;;;;;5053940;28;20394;-72
2022/06/24 02:28:31;;;;;;;6.88;2.65;;;;;;;;;;5052176;28;20025;-71
2022/06/24 02:30:58;;;;;;;4.22;2.53;;;;;;;;;;5051996;28;20033;-72
2022/06/24 02:33:24;;;;;;;6.85;3.00;;;;;;;;;;5052782;28;20021;-71
2022/06/24 02:35:50;;;;;;;4.72;2.42;;;;;;;;;;5052145;28;20040;-72
2022/06/24 02:38:16;;;;;;;6.45;2.70;;;;;;;;;;5051151;28;20048;-72
2022/06/24 02:40:45;;;;;;;6.95;3.15;;;;;;;;;;5051325;28;20112;-73
2022/06/24 02:43:12;;;;;;;4.50;2.88;;;;;;;;;;5051969;28;20378;-72
2022/06/24 02:45:39;;;;;;;3.60;2.50;;;;;;;;;;5051852;28;20028;-72
2022/06/24 02:48:05;;;;;;;6.53;2.70;;;;;;;;;;5052273;28;20690;-72
2022/06/24 02:50:31;;;;;;;5.63;3.03;;;;;;;;;;5052111;28;20104;-72
2022/06/24 02:52:57;;;;;;;5.47;2.95;;;;;;;;;;5051881;28;20106;-72
2022/06/24 02:55:23;;;;;;;9.38;3.50;;;;;;;;;;5051754;28;20083;-72
2022/06/24 02:57:49;;;;;;;4.28;2.75;;;;;;;;;;5051861;28;20040;-72
2022/06/24 03:00:15;;;;;;;8.40;3.15;;;;;;;;;;5052754;28;20051;-72
2022/06/24 03:02:41;;;;;;;9.27;3.15;;;;;;;;;;5052193;28;20036;-72
2022/06/24 03:05:07;;;;;;;8.32;2.90;;;;;;;;;;5051437;28;20025;-72
2022/06/24 03:07:33;;;;;;;4.07;3.00;;;;;;;;;;5053073;28;20033;-72
2022/06/24 03:09:59;;;;;;;5.60;3.03;;;;;;;;;;5052359;28;20025;-73
2022/06/24 03:12:25;;;;;;;6.38;3.20;;;;;;;;;;5052592;28;20056;-72
2022/06/24 03:14:51;;;;;;;6.80;2.88;;;;;;;;;;5052997;28;20029;-72
2022/06/24 03:17:17;;;;;;;5.35;2.75;;;;;;;;;;5053712;28;20029;-72
2022/06/24 03:19:43;;;;;;;5.90;3.17;;;;;;;;;;5052877;28;20040;-72
2022/06/24 03:22:09;;;;;;;9.18;3.30;;;;;;;;;;5052642;28;20123;-72
2022/06/24 03:24:35;;;;;;;6.85;2.83;;;;;;;;;;5052854;28;20021;-71
2022/06/24 03:27:01;;;;;;;5.90;3.05;;;;;;;;;;5054762;28;20024;-71
2022/06/24 03:29:27;;;;;;;6.00;3.00;;;;;;;;;;5053570;28;20033;-72
2022/06/24 03:31:53;;;;;;;6.50;3.53;;;;;;;;;;5055409;28;20029;-73
2022/06/24 03:34:19;;;;;;;4.38;2.85;;;;;;;;;;5055799;28;20074;-73
2022/06/24 03:36:45;;;;;;;10.95;3.67;;;;;;;;;;5052234;28;20025;-73
2022/06/24 03:39:11;;;;;;;8.20;3.67;;;;;;;;;;5051940;28;20029;-73
2022/06/24 03:41:37;;;;;;;7.00;2.92;;;;;;;;;;5053765;28;20024;-73
2022/06/24 03:44:03;;;;;;;9.45;3.38;;;;;;;;;;5053280;28;20542;-72
2022/06/24 03:46:29;;;;;;;6.25;2.90;;;;;;;;;;5054345;28;20414;-72
2022/06/24 03:48:55;;;;;;;8.95;4.13;;;;;;;;;;5053028;28;20559;-72
2022/06/24 03:51:21;;;;;;;6.70;3.10;;;;;;;;;;5053997;28;20029;-72
2022/06/24 03:53:47;;;;;;;5.35;3.05;;;;;;;;;;5056996;28;20025;-74
2022/06/24 03:56:13;;;;;;;10.93;3.20;;;;;;;;;;5057125;28;20040;-73
2022/06/24 03:58:39;;;;;;;8.30;4.30;;;;;;;;;;5061795;28;20021;-72
2022/06/24 04:01:04;;;;;;;9.32;4.78;;;;;;;;;;5060135;28;20032;-74
2022/06/24 04:03:31;;;;;;;6.78;4.25;;;;;;;;;;5055266;28;20025;-73
2022/06/24 04:05:56;;;;;;;8.40;5.38;;;;;;;;;;5054647;28;20064;-72
2022/06/24 04:08:22;;;;;;;6.82;3.40;;;;;;;;;;5055599;28;20070;-73
2022/06/24 04:10:48;;;;;;;7.65;4.35;;;;;;;;;;5056658;28;20394;-73
2022/06/24 04:13:14;;;;;;;8.27;4.00;;;;;;;;;;5055071;28;20021;-72
2022/06/24 04:15:44;;;;;;;8.48;4.47;;;;;;;;;;5054743;28;20444;-73
2022/06/24 04:18:10;;;;;;;5.78;2.70;;;;;;;;;;5055524;28;20029;-73
2022/06/24 04:20:36;;;;;;;8.48;3.28;;;;;;;;;;5054616;28;20109;-73
2022/06/24 04:23:02;;;;;;;6.53;2.90;;;;;;;;;;5056242;28;20028;-72
2022/06/24 04:25:28;;;;;;;4.68;3.25;;;;;;;;;;5056380;28;20348;-74
2022/06/24 04:27:54;;;;;;;8.88;3.70;;;;;;;;;;5054653;28;20106;-74
2022/06/24 04:30:20;;;;;;;9.15;2.72;;;;;;;;;;5053240;28;20053;-73
2022/06/24 04:32:46;;;;;;;6.38;2.80;;;;;;;;;;5054713;28;20075;-74
2022/06/24 04:35:12;;;;;;;6.35;3.03;;;;;;;;;;5054877;28;20108;-73
2022/06/24 04:37:38;;;;;;;8.55;4.57;;;;;;;;;;5052948;28;20032;-74
2022/06/24 04:40:08;;;;;;;8.93;3.10;;;;;;;;;;5054782;28;20025;-74
2022/06/24 04:42:34;;;;;;;9.07;3.08;;;;;;;;;;5055693;28;20043;-71
2022/06/24 04:45:00;;;;;;;4.35;2.78;;;;;;;;;;5056174;28;20017;-71
2022/06/24 04:47:26;;;;;;;5.03;3.00;;;;;;;;;;5058749;28;20500;-72
2022/06/24 04:49:52;;;;;;;5.50;3.22;;;;;;;;;;5065832;28;20095;-74
2022/06/24 04:52:18;;;;;;;9.05;3.03;;;;;;;;;;5054691;28;20057;-73
2022/06/24 04:54:44;;;;;;;10.30;3.50;;;;;;;;;;5054986;28;20091;-74
2022/06/24 04:57:11;;;;;;;8.70;3.38;;;;;;;;;;5054540;28;20051;-73
2022/06/24 04:59:37;;;;;;;9.20;3.58;;;;;;;;;;5054787;28;20021;-75
2022/06/24 05:02:03;;;;;;;10.45;3.80;;;;;;;;;;5053146;28;20040;-73
2022/06/24 05:04:29;;;;;;;7.60;3.35;;;;;;;;;;5053125;28;20371;-73
2022/06/24 05:06:55;;;;;;;6.60;3.15;;;;;;;;;;5053883;28;20028;-72
2022/06/24 05:09:21;;;;;;;11.68;3.30;;;;;;;;;;5053827;28;20025;-73
2022/06/24 05:11:50;;;;;;;9.23;3.25;;;;;;;;;;5058283;28;20029;-73
2022/06/24 05:14:16;;;;;;;10.75;4.05;;;;;;;;;;5061431;28;20017;-73
2022/06/24 05:16:42;;;;;;;8.48;3.25;;;;;;;;;;5057049;28;20025;-73
2022/06/24 05:19:08;;;;;;;11.55;4.00;;;;;;;;;;5055729;28;20036;-74
2022/06/24 05:21:34;;;;;;;7.53;3.10;;;;;;;;;;5054298;28;20029;-74
2022/06/24 05:24:00;;;;;;;7.00;3.65;;;;;;;;;;5054971;28;20541;-74
2022/06/24 05:26:26;;;;;;;10.50;3.05;;;;;;;;;;5053991;28;20104;-73
2022/06/24 05:28:52;;;;;;;8.43;3.10;;;;;;;;;;5060622;28;20070;-72
2022/06/24 05:31:18;;;;;;;6.78;3.63;;;;;;;;;;5056442;28;20430;-73
2022/06/24 05:33:44;;;;;;;7.00;3.53;;;;;;;;;;5059808;28;20033;-73
2022/06/24 05:36:10;;;;;;;6.18;3.58;;;;;;;;;;5059429;28;20021;-72
2022/06/24 05:38:36;;;;;;;8.15;3.22;;;;;;;;;;5054443;28;20390;-73
2022/06/24 05:41:03;;;;;;;8.15;2.80;;;;;;;;;;5056249;28;20028;-73
2022/06/24 05:43:29;;;;;;;7.65;3.53;;;;;;;;;;5056117;28;20025;-74
2022/06/24 05:45:54;;;;;;;5.95;3.30;;;;;;;;;;5056223;28;20019;-77
2022/06/24 05:48:20;;;;;;;8.82;3.78;;;;;;;;;;5056313;28;20025;-73
2022/06/24 05:50:46;;;;;;;10.30;3.40;;;;;;;;;;5055236;28;20122;-72
2022/06/24 05:55:59;;;;;;;7.47;3.47;;;;;;;;;;5053703;28;20075;-72
2022/06/24 05:58:25;;;;;;;7.80;3.40;;;;;;;;;;5056504;28;20033;-74
2022/06/24 06:00:53;;;;;;;7.10;3.80;;;;;;;;;;5053278;28;20033;-72
2022/06/24 06:03:19;;;;;;;10.25;3.75;;;;;;;;;;5054503;28;20028;-73
2022/06/24 06:05:45;;;;;;;15.48;4.10;;;;;;;;;;5053344;28;20025;-73
2022/06/24 06:08:11;;;;;;;12.38;3.90;;;;;;;;;;5055379;28;20096;-76
2022/06/24 06:10:38;;;;;;;6.30;3.25;;;;;;;;;;5052319;28;20112;-74
2022/06/24 06:13:04;;;;;;;7.40;3.42;;;;;;;;;;5053097;28;20021;-74
2022/06/24 06:15:30;;;;;;;9.43;3.50;;;;;;;;;;5051580;28;20020;-74
2022/06/24 06:17:56;;;;;;;11.40;3.85;;;;;;;;;;5053240;28;20454;-74
2022/06/24 06:20:22;;;;;;;12.40;4.00;;;;;;;;;;5053163;28;20025;-74
2022/06/24 06:22:48;;;;;;;9.77;3.75;;;;;;;;;;5052723;28;20021;-74
2022/06/24 06:25:15;;;;;;;11.73;4.25;;;;;;;;;;5052724;28;20032;-73
2022/06/24 06:27:41;;;;;;;12.65;4.03;;;;;;;;;;5054674;28;20501;-75
2022/06/24 06:30:07;;;;;;;10.75;4.13;;;;;;;;;;5072897;22;20113;-75
2022/06/24 06:32:33;;;;;;;10.10;4.05;;;;;;;;;;5067984;28;20040;-76
2022/06/24 06:34:59;;;;;;;9.82;3.45;;;;;;;;;;5062961;28;20033;-75
2022/06/24 06:37:25;;;;;;;15.10;3.83;;;;;;;;;;5060037;28;20029;-76
2022/06/24 06:39:51;;;;;;;6.40;3.63;;;;;;;;;;5054450;28;20040;-75
2022/06/24 06:42:17;;;;;;;9.80;3.83;;;;;;;;;;5064997;28;20481;-73
2022/06/24 06:44:43;;;;;;;9.18;3.90;;;;;;;;;;5059748;28;20121;-77
2022/06/24 06:47:09;;;;;;;6.68;3.75;;;;;;;;;;5063900;28;20036;-75
2022/06/24 06:49:35;;;;;;;13.27;3.63;;;;;;;;;;5064436;28;20024;-75
2022/06/24 06:52:01;;;;;;;7.55;3.72;;;;;;;;;;5061616;28;20037;-75
2022/06/24 06:54:27;;;;;;;7.45;4.10;;;;;;;;;;5060981;28;20494;-76
2022/06/24 06:56:53;;;;;;;10.95;3.70;;;;;;;;;;5057247;28;20032;-76
2022/06/24 06:59:19;;;;;;;9.35;3.92;;;;;;;;;;5055617;28;20032;-75
2022/06/24 07:01:45;;;;;;;8.57;3.38;;;;;;;;;;5057761;28;20412;-75
2022/06/24 07:04:11;;;;;;;13.93;4.50;;;;;;;;;;5054513;28;20025;-77
2022/06/24 07:06:37;;;;;;;17.73;3.95;;;;;;;;;;5054871;28;20023;-75
2022/06/24 07:09:03;;;;;;;12.60;3.90;;;;;;;;;;5052908;28;20103;-75
2022/06/24 07:11:29;;;;;;;9.35;3.88;;;;;;;;;;5053410;28;20032;-75
2022/06/24 07:13:55;;;;;;;11.40;4.47;;;;;;;;;;5053374;28;20033;-76
2022/06/24 07:16:21;;;;;;;18.15;5.38;;;;;;;;;;5052718;28;20036;-75
2022/06/24 07:18:47;;;;;;;8.90;3.97;;;;;;;;;;5053050;28;20053;-74
2022/06/24 07:21:13;;;;;;;7.50;3.72;;;;;;;;;;5052239;28;20454;-74
2022/06/24 07:23:40;;;;;;;9.63;3.65;;;;;;;;;;5053456;28;20133;-74
2022/06/24 07:26:06;;;;;;;11.52;3.83;;;;;;;;;;5052540;28;20028;-75
2022/06/24 07:28:34;;;;;;;17.85;4.38;;;;;;;;;;5051372;28;20025;-75
2022/06/24 07:31:00;;;;;;;8.00;3.90;;;;;;;;;;5052354;28;20504;-74
2022/06/24 07:33:26;;;;;;;11.00;5.00;;;;;;;;;;5052683;28;20489;-75
2022/06/24 07:35:52;;;;;;;9.23;4.28;;;;;;;;;;5051645;28;20060;-73
2022/06/24 07:38:18;;;;;;;7.75;3.75;;;;;;;;;;5057423;28;20114;-75
2022/06/24 07:40:44;;;;;;;12.25;3.92;;;;;;;;;;5057368;28;20214;-75
2022/06/24 07:43:10;;;;;;;10.60;4.43;;;;;;;;;;5057745;28;20056;-75
2022/06/24 07:45:36;;;;;;;11.85;4.85;;;;;;;;;;5057385;28;20465;-74
2022/06/24 07:48:02;;;;;;;9.38;3.63;;;;;;;;;;5055698;28;20032;-74
2022/06/24 07:50:29;;;;;;;8.60;3.97;;;;;;;;;;5055373;28;20017;-76
2022/06/24 07:52:54;;;;;;;13.98;3.50;;;;;;;;;;5058072;28;20028;-78
2022/06/24 07:58:05;;;;;;;;;;;;;;;;;;5060472;28;20540;-76
2022/06/24 08:00:31;;;;;;;17.42;4.78;;;;;;;;;;5058517;28;19908;-76
2022/06/24 08:02:57;;;;;;;15.05;4.20;;;;;;;;;;5059263;28;20017;-76
2022/06/24 08:05:24;;;;;;;8.20;4.07;;;;;;;;;;5057314;28;20390;-75
2022/06/24 08:07:50;;;;;;;9.35;4.00;;;;;;;;;;5057135;28;20025;-75
2022/06/24 08:10:16;;;;;;;9.57;4.07;;;;;;;;;;5056171;28;20032;-76
2022/06/24 08:12:42;;;;;;;19.20;4.28;;;;;;;;;;5056672;28;20489;-75
2022/06/24 08:15:08;;;;;;;13.80;3.97;;;;;;;;;;5060977;28;20025;-75
2022/06/24 08:17:34;;;;;;;11.25;4.78;;;;;;;;;;5059166;28;20059;-76
2022/06/24 08:20:00;;;;;;;9.93;3.85;;;;;;;;;;5056743;28;20109;-75
2022/06/24 08:22:26;;;;;;;10.93;4.55;;;;;;;;;;5055339;28;20060;-74
2022/06/24 08:24:52;;;;;;;11.20;4.10;;;;;;;;;;5056827;28;20032;-75
2022/06/24 08:27:18;;;;;;;7.70;4.00;;;;;;;;;;5055818;28;20393;-74
2022/06/24 08:29:44;;;;;;;8.95;3.83;;;;;;;;;;5057337;28;20024;-76
2022/06/24 08:32:10;;;;;;;8.45;4.20;;;;;;;;;;5056981;28;20031;-75
2022/06/24 08:34:36;;;;;;;6.88;4.40;;;;;;;;;;5056916;28;20112;-74
2022/06/24 08:37:02;;;;;;;8.77;4.03;;;;;;;;;;5054757;28;20035;-75
2022/06/24 08:39:28;;;;;;;10.68;4.40;;;;;;;;;;5054591;28;20516;-76
2022/06/24 08:41:57;;;;;;;11.68;4.15;;;;;;;;;;5055515;28;20027;-75
2022/06/24 08:44:23;;;;;;;16.60;4.47;;;;;;;;;;5056098;28;20438;-75
2022/06/24 08:46:49;;;;;;;10.73;4.13;;;;;;;;;;5063943;28;20021;-76
2022/06/24 08:49:16;;;;;;;13.55;4.22;;;;;;;;;;5075323;28;20021;-75
2022/06/24 08:51:42;;;;;;;11.18;4.20;;;;;;;;;;5070294;28;20061;-75
2022/06/24 08:54:09;;;;;;;9.88;4.65;;;;;;;;;;5055412;28;20060;-74
2022/06/24 08:56:35;;;;;;;10.65;4.30;;;;;;;;;;5056141;28;20100;-75
2022/06/24 08:59:02;;;;;;;11.75;4.20;;;;;;;;;;5057234;28;20351;-74
2022/06/24 09:01:28;;;;;;;14.57;4.10;;;;;;;;;;5054715;28;20539;-75
2022/06/24 09:03:54;;;;;;;8.38;4.40;;;;;;;;;;5057652;28;20025;-73
2022/06/24 09:06:20;;;;;;;7.93;4.13;;;;;;;;;;5060666;28;20025;-75
2022/06/24 09:08:49;;;;;;;18.17;4.20;;;;;;;;;;5058692;28;20105;-73
2022/06/24 09:11:15;;;;;;;9.63;4.15;;;;;;;;;;5061823;28;20033;-74
2022/06/24 09:13:45;;;;;;;10.65;3.50;;;;;;;;;;5061525;28;20100;-77
2022/06/24 09:16:12;;;;;;;7.82;3.85;;;;;;;;;;5058392;28;20107;-74
2022/06/24 09:18:38;;;;;;;13.30;4.20;;;;;;;;;;5059224;28;20033;-75
2022/06/24 09:21:04;;;;;;;14.48;4.32;;;;;;;;;;5058331;28;20460;-74
2022/06/24 09:23:30;;;;;;;13.02;4.85;;;;;;;;;;5059390;28;20025;-75
2022/06/24 09:25:59;;;;;;;9.38;3.58;;;;;;;;;;5062654;28;20026;-73
2022/06/24 09:28:29;;;;;;;15.38;4.63;;;;;;;;;;5063514;28;20021;-76
2022/06/24 09:31:08;;;;;;;7.05;3.45;;;;;;;;;;5063890;28;20052;-75
2022/06/24 09:33:38;;;;;;;6.85;4.20;;;;;;;;;;5070541;28;20033;-76
2022/06/24 09:36:05;;;;;;;10.15;3.80;;;;;;;;;;5064810;28;20028;-76
2022/06/24 09:38:31;;;;;;;6.95;3.85;;;;;;;;;;5067649;28;20024;-73
2022/06/24 09:41:01;;;;;;;14.27;4.13;;;;;;;;;;5067879;28;20508;-75
2022/06/24 09:43:30;;;;;;;13.98;4.07;;;;;;;;;;5065551;28;20107;-74
2022/06/24 09:45:56;;;;;;;13.38;4.35;;;;;;;;;;5065634;28;20013;-73
2022/06/24 09:48:37;;;;;;;9.07;4.07;;;;;;;;;;5057082;28;20024;-77
2022/06/24 09:51:03;;;;;;;13.77;4.47;;;;;;;;;;5055174;28;20025;-74
2022/06/24 09:53:35;;;;;;;8.02;4.40;;;;;;;;;;5054932;28;20040;-74
2022/06/24 09:56:01;;;;;;;9.10;4.32;;;;;;;;;;5054564;28;20040;-75
2022/06/24 09:58:27;;;;;;;10.15;4.30;;;;;;;;;;5052241;28;20029;-75
2022/06/24 10:00:53;;;;;;;7.30;5.03;;;;;;;;;;5053716;28;20029;-74
2022/06/24 10:03:19;;;;;;;13.65;4.63;;;;;;;;;;5053011;28;20032;-73
2022/06/24 10:05:46;;;;;;;9.50;3.90;;;;;;;;;;5053480;28;20428;-76
2022/06/24 10:08:16;;;;;;;13.07;4.88;;;;;;;;;;5053900;28;20548;-75
2022/06/24 10:10:45;;;;;;;8.93;4.00;;;;;;;;;;5053765;28;20025;-76
2022/06/24 10:13:23;;;;;;;7.30;4.05;;;;;;;;;;5054224;28;20036;-75
2022/06/24 10:15:50;;;;;;;8.00;4.63;;;;;;;;;;5054172;28;20108;-77
2022/06/24 10:18:17;;;;;;;12.32;4.80;;;;;;;;;;5054112;28;20541;-74
2022/06/24 10:20:45;;;;;;;12.68;4.75;;;;;;;;;;5053806;28;20021;-75
2022/06/24 10:23:30;;;;;;;10.07;4.40;;;;;;;;;;5052940;28;20060;-75
2022/06/24 10:25:56;;;;;;;18.13;4.53;;;;;;;;;;5053593;28;20060;-75
2022/06/24 10:28:22;;;;;;;8.82;4.50;;;;;;;;;;5054658;28;20050;-74
2022/06/24 10:30:48;;;;;;;13.52;4.40;;;;;;;;;;5054016;28;20115;-74
2022/06/24 10:33:19;;;;;;;10.73;4.35;;;;;;;;;;5058810;28;20098;-74
2022/06/24 10:36:12;;;;;;;8.00;4.38;;;;;;;;;;5061191;28;20028;-76
2022/06/24 10:38:38;;;;;;;6.03;4.20;;;;;;;;;;5052185;28;20036;-75
2022/06/24 10:41:05;;;;;;;15.38;6.07;;;;;;;;;;5053982;28;20042;-75
2022/06/24 10:43:38;;;;;;;10.75;5.57;;;;;;;;;;5052871;28;20026;-74
2022/06/24 10:46:13;;;;;;;11.13;4.43;;;;;;;;;;5054187;28;20385;-75
2022/06/24 10:48:47;;;;;;;9.55;4.38;;;;;;;;;;5055701;28;20036;-75
2022/06/24 10:51:17;;;;;;;9.45;4.55;;;;;;;;;;5056597;28;20031;-74
2022/06/24 10:54:02;;;;;;;10.38;4.80;;;;;;;;;;5057152;28;20028;-74
2022/06/24 10:56:40;;;;;;;14.68;5.32;;;;;;;;;;5053662;28;20059;-77
2022/06/24 10:59:06;;;;;;;9.63;4.95;;;;;;;;;;5054860;28;20389;-75
2022/06/24 11:01:32;;;;;;;9.45;4.35;;;;;;;;;;5055789;28;20029;-75
2022/06/24 11:04:00;;;;;;;13.55;4.82;;;;;;;;;;5054330;28;20053;-75
2022/06/24 11:06:26;;;;;;;14.40;4.93;;;;;;;;;;5053429;28;20024;-77
2022/06/24 11:08:52;;;;;;;12.00;4.32;;;;;;;;;;5054716;28;20044;-74
2022/06/24 11:11:27;;;;;;;14.40;5.53;;;;;;;;;;5052428;28;20032;-74
2022/06/24 11:13:53;;;;;;;8.18;4.85;;;;;;;;;;5057451;28;20033;-74
2022/06/24 11:16:19;;;;;;;8.40;4.03;;;;;;;;;;5053981;28;20389;-74
2022/06/24 11:18:49;;;;;;;14.80;4.90;;;;;;;;;;5052606;28;20040;-75
2022/06/24 11:21:17;;;;;;;10.30;4.50;;;;;;;;;;5053276;28;20029;-75
2022/06/24 11:23:45;;;;;;;7.40;4.10;;;;;;;;;;5053671;28;20017;-77
2022/06/24 11:26:15;;;;;;;8.32;4.30;;;;;;;;;;5054015;28;20040;-75
2022/06/24 11:28:42;;;;;;;10.73;4.30;;;;;;;;;;5055970;28;20074;-76
2022/06/24 11:31:19;;;;;;;10.63;4.40;;;;;;;;;;5055857;28;20075;-73
2022/06/24 11:33:46;;;;;;;13.55;4.70;;;;;;;;;;5056061;28;20036;-75
2022/06/24 11:36:14;;;;;;;14.07;4.88;;;;;;;;;;5054313;28;20047;-74
2022/06/24 11:38:49;;;;;;;12.30;4.57;;;;;;;;;;5053694;28;20028;-75
2022/06/24 11:41:22;;;;;;;8.20;4.55;;;;;;;;;;5053132;28;20050;-75
2022/06/24 11:43:51;;;;;;;7.45;4.35;;;;;;;;;;5053836;28;20058;-74
2022/06/24 11:46:17;;;;;;;13.77;4.95;;;;;;;;;;5054162;28;20104;-74
2022/06/24 11:48:43;;;;;;;9.93;5.03;;;;;;;;;;5053918;28;20025;-73
2022/06/24 11:51:18;;;;;;;11.75;4.78;;;;;;;;;;5055243;28;20039;-76
2022/06/24 11:53:57;;;;;;;8.95;4.35;;;;;;;;;;5055034;28;20025;-75
2022/06/24 11:56:27;;;;;;;12.43;4.47;;;;;;;;;;5055798;28;20099;-76
2022/06/24 11:58:53;;;;;;;10.05;5.63;;;;;;;;;;5055910;28;20029;-75
2022/06/24 12:01:19;;;;;;;10.95;4.38;;;;;;;;;;5053713;28;20078;-77
2022/06/24 12:03:46;;;;;;;13.90;7.00;;;;;;;;;;5054738;28;20031;-77
2022/06/24 12:06:12;;;;;;;16.13;8.20;;;;;;;;;;5052983;28;20017;-77
2022/06/24 12:08:38;;;;;;;15.50;5.95;;;;;;;;;;5058029;28;20029;-77
2022/06/24 12:11:13;;;;;;;13.52;4.70;;;;;;;;;;5061942;28;20433;-76
2022/06/24 12:13:39;;;;;;;10.88;5.88;;;;;;;;;;5060032;28;20029;-77
2022/06/24 12:16:06;;;;;;;8.07;4.50;;;;;;;;;;5058116;28;20028;-77
2022/06/24 12:18:32;;;;;;;12.75;4.60;;;;;;;;;;5060198;28;20033;-75
2022/06/24 12:21:10;;;;;;;9.52;4.85;;;;;;;;;;5060460;28;20052;-76
2022/06/24 12:23:44;;;;;;;12.40;4.53;;;;;;;;;;5064359;28;20070;-77
2022/06/24 12:26:13;;;;;;;7.45;4.93;;;;;;;;;;5062466;28;20070;-76
2022/06/24 12:28:40;;;;;;;10.70;4.95;;;;;;;;;;5063477;28;20658;-77
2022/06/24 12:31:07;;;;;;;19.55;6.45;;;;;;;;;;5061744;22;20053;-73
2022/06/24 12:33:34;;;;;;;15.55;5.93;;;;;;;;;;5041150;28;20382;-74
2022/06/24 12:36:03;;;;;;;13.38;5.40;;;;;;;;;;5036479;28;20112;-73
2022/06/24 12:38:29;;;;;;;17.80;6.28;;;;;;;;;;5031569;28;20019;-74
2022/06/24 12:41:12;;;;;;;15.35;5.93;;;;;;;;;;5035673;28;20107;-74
2022/06/24 12:43:50;;;;;;;19.02;6.63;;;;;;;;;;5035526;28;20041;-75
2022/06/24 12:46:17;;;;;;;21.48;6.95;;;;;;;;;;5035714;28;20022;-73
2022/06/24 12:51:27;;;;;;;34.47;7.88;;;;;;;;;;5037380;28;20095;-75
2022/06/24 12:53:54;;;;;;;20.70;8.05;;;;;;;;;;5034930;28;20029;-74
2022/06/24 12:56:20;;;;;;;20.42;7.07;;;;;;;;;;5036864;28;20409;-77
2022/06/24 12:58:46;;;;;;;23.10;6.88;;;;;;;;;;5035522;28;20029;-73
2022/06/24 13:01:12;;;;;;;12.90;5.60;;;;;;;;;;5039692;28;20025;-72
2022/06/24 13:03:38;;;;;;;15.77;5.25;;;;;;;;;;5034623;28;20025;-72
2022/06/24 13:06:04;;;;;;;13.63;5.85;;;;;;;;;;5033821;28;20056;-72
2022/06/24 13:08:30;;;;;;;13.35;5.60;;;;;;;;;;5034617;28;20052;-73
2022/06/24 13:10:56;;;;;;;12.90;5.80;;;;;;;;;;5034517;28;20038;-74
2022/06/24 13:13:22;;;;;;;13.00;5.90;;;;;;;;;;5038119;28;20363;-71
2022/06/24 13:15:49;;;;;;;11.60;5.88;;;;;;;;;;5036264;28;20026;-72
2022/06/24 13:18:15;;;;;;;19.20;6.40;;;;;;;;;;5038021;28;20028;-71
2022/06/24 13:20:41;;;;;;;18.13;8.30;;;;;;;;;;5037092;28;20033;-72
2022/06/24 13:23:07;;;;;;;18.15;7.32;;;;;;;;;;5037352;28;20396;-72
2022/06/24 13:25:33;;;;;;;19.65;6.63;;;;;;;;;;5036843;28;20018;-74
2022/06/24 13:28:02;;;;;;;16.17;7.10;;;;;;;;;;5035397;28;20029;-72
2022/06/24 13:30:28;;;;;;;17.73;6.63;;;;;;;;;;5034634;28;20520;-74
2022/06/24 13:32:54;;;;;;;18.52;6.43;;;;;;;;;;5035288;28;20034;-73
2022/06/24 13:35:20;;;;;;;18.67;6.20;;;;;;;;;;5035524;28;20068;-73
2022/06/24 13:37:46;;;;;;;17.83;6.80;;;;;;;;;;5039424;28;20039;-73
2022/06/24 13:40:12;;;;;;;18.20;6.47;;;;;;;;;;5039412;28;20389;-76
2022/06/24 13:42:38;;;;;;;17.67;6.53;;;;;;;;;;5037565;28;20471;-74
2022/06/24 13:45:04;;;;;;;12.38;5.75;;;;;;;;;;5038836;28;20053;-73
2022/06/24 13:47:30;;;;;;;23.75;6.82;;;;;;;;;;5037001;28;20028;-72
2022/06/24 13:49:59;;;;;;;21.08;6.80;;;;;;;;;;5043049;28;20030;-73
2022/06/24 13:52:27;;;;;;;12.35;6.05;;;;;;;;;;5043205;28;20509;-73
2022/06/24 13:54:53;;;;;;;15.43;6.25;;;;;;;;;;5041971;28;20112;-74
2022/06/24 13:57:21;;;;;;;12.95;6.03;;;;;;;;;;5036238;28;20107;-73
2022/06/24 13:59:47;;;;;;;16.17;6.10;;;;;;;;;;5035486;28;20433;-73
2022/06/24 14:02:13;;;;;;;16.40;6.72;;;;;;;;;;5036220;28;20079;-74
2022/06/24 14:04:39;;;;;;;13.23;6.10;;;;;;;;;;5035133;28;20021;-72
2022/06/24 14:07:05;;;;;;;27.58;12.60;;;;;;;;;;5039590;28;20088;-73
2022/06/24 14:09:32;;;;;;;19.92;9.88;;;;;;;;;;5039578;28;20032;-74
2022/06/24 14:11:58;;;;;;;16.88;5.82;;;;;;;;;;5038422;28;20045;-73
2022/06/24 14:14:24;;;;;;;9.18;5.25;;;;;;;;;;5036565;28;20394;-73
2022/06/24 14:16:51;;;;;;;10.75;5.43;;;;;;;;;;5035004;28;20555;-72
2022/06/24 14:19:21;;;;;;;22.67;12.05;;;;;;;;;;5036898;28;20026;-73
2022/06/24 14:21:47;;;;;;;15.75;5.70;;;;;;;;;;5038022;28;20029;-75
2022/06/24 14:24:31;;;;;;;13.55;5.15;;;;;;;;;;5039842;28;20026;-73
2022/06/24 14:26:57;;;;;;;16.33;5.00;;;;;;;;;;5033684;28;20382;-73
2022/06/24 14:29:23;;;;;;;13.25;5.32;;;;;;;;;;5033737;28;20029;-74
2022/06/24 14:31:49;;;;;;;14.80;4.93;;;;;;;;;;5034147;28;20049;-73
2022/06/24 14:34:15;;;;;;;12.68;4.40;;;;;;;;;;5034716;28;20445;-71
2022/06/24 14:36:41;;;;;;;9.00;4.30;;;;;;;;;;5028192;28;20434;-74
2022/06/24 14:41:52;;;;;;;;;;;;;;;;;;5017342;28;20037;-73
2022/06/24 14:44:18;;;;;;;6.22;2.63;;;;;;;;;;5016152;28;19906;-74
2022/06/24 14:46:43;;;;;;;11.48;3.60;;;;;;;;;;5015102;28;20022;-75
2022/06/24 14:49:09;;;;;;;10.25;3.22;;;;;;;;;;5015374;28;20153;-73
2022/06/24 14:51:35;;;;;;;10.05;3.35;;;;;;;;;;5015796;28;20030;-73